sensor_id;sensor_type;location;lat;lon;timestamp;P1;durP1;ratioP1;P2;durP2;ratioP2
48629;SDS011;34426;52.180;4.462;2023-12-04T00:00:50;32.80;;;18.38;;
48629;SDS011;34426;52.180;4.462;2023-12-04T00:03:17;29.02;;;17.60;;
48629;SDS011;34426;52.180;4.462;2023-12-04T00:05:43;27.73;;;17.17;;
48629;SDS011;34426;52.180;4.462;2023-12-04T00:08:09;26.25;;;16.88;;
48629;SDS011;34426;52.180;4.462;2023-12-04T00:10:36;23.20;;;15.48;;
48629;SDS011;34426;52.180;4.462;2023-12-04T00:13:03;24.58;;;16.27;;
48629;SDS011;34426;52.180;4.462;2023-12-04T00:15:29;27.02;;;16.85;;
48629;SDS011;34426;52.180;4.462;2023-12-04T00:17:54;29.05;;;16.38;;
48629;SDS011;34426;52.180;4.462;2023-12-04T00:20:20;26.73;;;16.70;;
48629;SDS011;34426;52.180;4.462;2023-12-04T00:22:45;28.15;;;16.77;;
48629;SDS011;34426;52.180;4.462;2023-12-04T00:25:11;26.63;;;16.55;;
48629;SDS011;34426;52.180;4.462;2023-12-04T00:27:37;28.45;;;17.25;;
48629;SDS011;34426;52.180;4.462;2023-12-04T00:30:04;31.85;;;17.40;;
48629;SDS011;34426;52.180;4.462;2023-12-04T00:32:31;28.05;;;16.00;;
48629;SDS011;34426;52.180;4.462;2023-12-04T00:34:56;26.80;;;16.75;;
48629;SDS011;34426;52.180;4.462;2023-12-04T00:37:22;27.40;;;17.23;;
48629;SDS011;34426;52.180;4.462;2023-12-04T00:39:48;26.67;;;17.38;;
48629;SDS011;34426;52.180;4.462;2023-12-04T00:42:13;26.52;;;16.98;;
48629;SDS011;34426;52.180;4.462;2023-12-04T00:44:39;27.05;;;16.05;;
48629;SDS011;34426;52.180;4.462;2023-12-04T00:47:06;27.50;;;16.20;;
48629;SDS011;34426;52.180;4.462;2023-12-04T00:49:31;26.75;;;15.20;;
48629;SDS011;34426;52.180;4.462;2023-12-04T00:51:57;29.50;;;17.65;;
48629;SDS011;34426;52.180;4.462;2023-12-04T00:54:26;23.92;;;15.68;;
48629;SDS011;34426;52.180;4.462;2023-12-04T00:56:51;30.05;;;18.20;;
48629;SDS011;34426;52.180;4.462;2023-12-04T00:59:19;25.30;;;16.35;;
48629;SDS011;34426;52.180;4.462;2023-12-04T01:01:45;30.75;;;17.00;;
48629;SDS011;34426;52.180;4.462;2023-12-04T01:04:12;27.58;;;15.95;;
48629;SDS011;34426;52.180;4.462;2023-12-04T01:06:40;25.10;;;16.25;;
48629;SDS011;34426;52.180;4.462;2023-12-04T01:09:08;29.85;;;16.80;;
48629;SDS011;34426;52.180;4.462;2023-12-04T01:11:34;28.33;;;16.35;;
48629;SDS011;34426;52.180;4.462;2023-12-04T01:13:59;26.92;;;17.17;;
48629;SDS011;34426;52.180;4.462;2023-12-04T01:16:25;31.75;;;17.00;;
48629;SDS011;34426;52.180;4.462;2023-12-04T01:18:50;31.15;;;16.73;;
48629;SDS011;34426;52.180;4.462;2023-12-04T01:21:17;26.02;;;16.23;;
48629;SDS011;34426;52.180;4.462;2023-12-04T01:23:43;27.10;;;16.48;;
48629;SDS011;34426;52.180;4.462;2023-12-04T01:26:09;27.67;;;16.90;;
48629;SDS011;34426;52.180;4.462;2023-12-04T01:28:35;27.10;;;16.63;;
48629;SDS011;34426;52.180;4.462;2023-12-04T01:31:01;28.33;;;16.58;;
48629;SDS011;34426;52.180;4.462;2023-12-04T01:33:26;25.80;;;16.00;;
48629;SDS011;34426;52.180;4.462;2023-12-04T01:35:52;26.13;;;16.33;;
48629;SDS011;34426;52.180;4.462;2023-12-04T01:38:18;28.17;;;16.85;;
48629;SDS011;34426;52.180;4.462;2023-12-04T01:40:44;25.33;;;15.90;;
48629;SDS011;34426;52.180;4.462;2023-12-04T01:43:09;25.75;;;16.42;;
48629;SDS011;34426;52.180;4.462;2023-12-04T01:45:35;30.20;;;17.23;;
48629;SDS011;34426;52.180;4.462;2023-12-04T01:48:00;25.77;;;16.23;;
48629;SDS011;34426;52.180;4.462;2023-12-04T01:50:27;29.52;;;17.80;;
48629;SDS011;34426;52.180;4.462;2023-12-04T01:52:53;27.67;;;17.35;;
48629;SDS011;34426;52.180;4.462;2023-12-04T01:55:20;31.27;;;16.80;;
48629;SDS011;34426;52.180;4.462;2023-12-04T01:57:46;26.40;;;16.63;;
48629;SDS011;34426;52.180;4.462;2023-12-04T02:00:12;26.30;;;17.17;;
48629;SDS011;34426;52.180;4.462;2023-12-04T02:02:38;26.73;;;15.95;;
48629;SDS011;34426;52.180;4.462;2023-12-04T02:05:04;28.02;;;16.08;;
48629;SDS011;34426;52.180;4.462;2023-12-04T02:07:32;29.40;;;17.10;;
48629;SDS011;34426;52.180;4.462;2023-12-04T02:09:58;27.77;;;17.08;;
48629;SDS011;34426;52.180;4.462;2023-12-04T02:12:26;26.95;;;15.88;;
48629;SDS011;34426;52.180;4.462;2023-12-04T02:14:51;26.52;;;16.27;;
48629;SDS011;34426;52.180;4.462;2023-12-04T02:17:17;26.23;;;16.17;;
48629;SDS011;34426;52.180;4.462;2023-12-04T02:19:44;26.65;;;15.95;;
48629;SDS011;34426;52.180;4.462;2023-12-04T02:22:10;24.42;;;16.40;;
48629;SDS011;34426;52.180;4.462;2023-12-04T02:24:37;26.40;;;16.65;;
48629;SDS011;34426;52.180;4.462;2023-12-04T02:27:04;26.95;;;16.30;;
48629;SDS011;34426;52.180;4.462;2023-12-04T02:29:46;25.33;;;16.10;;
48629;SDS011;34426;52.180;4.462;2023-12-04T02:32:17;28.08;;;16.67;;
48629;SDS011;34426;52.180;4.462;2023-12-04T02:34:44;23.13;;;15.38;;
48629;SDS011;34426;52.180;4.462;2023-12-04T02:37:11;22.20;;;15.07;;
48629;SDS011;34426;52.180;4.462;2023-12-04T02:39:40;24.35;;;15.07;;
48629;SDS011;34426;52.180;4.462;2023-12-04T02:42:06;22.50;;;14.93;;
48629;SDS011;34426;52.180;4.462;2023-12-04T02:44:32;23.88;;;15.90;;
48629;SDS011;34426;52.180;4.462;2023-12-04T02:46:58;23.75;;;15.55;;
48629;SDS011;34426;52.180;4.462;2023-12-04T02:49:23;23.75;;;15.40;;
48629;SDS011;34426;52.180;4.462;2023-12-04T02:51:49;20.10;;;13.63;;
48629;SDS011;34426;52.180;4.462;2023-12-04T02:54:14;25.25;;;15.00;;
48629;SDS011;34426;52.180;4.462;2023-12-04T02:56:41;21.77;;;13.38;;
48629;SDS011;34426;52.180;4.462;2023-12-04T02:59:06;25.30;;;14.50;;
48629;SDS011;34426;52.180;4.462;2023-12-04T03:01:32;23.80;;;14.65;;
48629;SDS011;34426;52.180;4.462;2023-12-04T03:03:57;24.67;;;15.07;;
48629;SDS011;34426;52.180;4.462;2023-12-04T03:06:23;23.58;;;14.80;;
48629;SDS011;34426;52.180;4.462;2023-12-04T03:08:48;22.77;;;14.80;;
48629;SDS011;34426;52.180;4.462;2023-12-04T03:11:14;22.23;;;14.85;;
48629;SDS011;34426;52.180;4.462;2023-12-04T03:13:41;21.48;;;14.02;;
48629;SDS011;34426;52.180;4.462;2023-12-04T03:16:14;21.92;;;14.32;;
48629;SDS011;34426;52.180;4.462;2023-12-04T03:18:40;21.85;;;13.77;;
48629;SDS011;34426;52.180;4.462;2023-12-04T03:21:06;23.80;;;14.82;;
48629;SDS011;34426;52.180;4.462;2023-12-04T03:23:32;24.63;;;13.82;;
48629;SDS011;34426;52.180;4.462;2023-12-04T03:25:57;23.63;;;14.52;;
48629;SDS011;34426;52.180;4.462;2023-12-04T03:28:23;22.10;;;14.05;;
48629;SDS011;34426;52.180;4.462;2023-12-04T03:30:50;23.05;;;13.77;;
48629;SDS011;34426;52.180;4.462;2023-12-04T03:33:15;22.58;;;14.10;;
48629;SDS011;34426;52.180;4.462;2023-12-04T03:35:41;21.48;;;14.15;;
48629;SDS011;34426;52.180;4.462;2023-12-04T03:38:07;21.90;;;13.88;;
48629;SDS011;34426;52.180;4.462;2023-12-04T03:40:33;23.85;;;14.40;;
48629;SDS011;34426;52.180;4.462;2023-12-04T03:42:58;20.10;;;13.75;;
48629;SDS011;34426;52.180;4.462;2023-12-04T03:45:25;22.70;;;14.55;;
48629;SDS011;34426;52.180;4.462;2023-12-04T03:47:52;20.58;;;13.63;;
48629;SDS011;34426;52.180;4.462;2023-12-04T03:50:17;22.88;;;14.32;;
48629;SDS011;34426;52.180;4.462;2023-12-04T03:52:45;23.90;;;13.73;;
48629;SDS011;34426;52.180;4.462;2023-12-04T03:55:11;21.13;;;14.15;;
48629;SDS011;34426;52.180;4.462;2023-12-04T03:57:36;19.80;;;12.70;;
48629;SDS011;34426;52.180;4.462;2023-12-04T04:00:02;20.80;;;13.45;;
48629;SDS011;34426;52.180;4.462;2023-12-04T04:02:30;19.23;;;12.65;;
48629;SDS011;34426;52.180;4.462;2023-12-04T04:04:57;18.90;;;12.23;;
48629;SDS011;34426;52.180;4.462;2023-12-04T04:07:23;17.48;;;12.15;;
48629;SDS011;34426;52.180;4.462;2023-12-04T04:09:48;22.92;;;13.48;;
48629;SDS011;34426;52.180;4.462;2023-12-04T04:12:14;19.85;;;12.77;;
48629;SDS011;34426;52.180;4.462;2023-12-04T04:14:39;22.13;;;13.30;;
48629;SDS011;34426;52.180;4.462;2023-12-04T04:17:05;18.60;;;12.55;;
48629;SDS011;34426;52.180;4.462;2023-12-04T04:19:30;20.35;;;13.10;;
48629;SDS011;34426;52.180;4.462;2023-12-04T04:21:57;21.13;;;12.38;;
48629;SDS011;34426;52.180;4.462;2023-12-04T04:24:23;18.42;;;12.55;;
48629;SDS011;34426;52.180;4.462;2023-12-04T04:26:48;19.88;;;12.48;;
48629;SDS011;34426;52.180;4.462;2023-12-04T04:29:14;20.90;;;12.98;;
48629;SDS011;34426;52.180;4.462;2023-12-04T04:31:39;17.75;;;11.60;;
48629;SDS011;34426;52.180;4.462;2023-12-04T04:34:05;19.02;;;11.65;;
48629;SDS011;34426;52.180;4.462;2023-12-04T04:36:30;19.27;;;12.27;;
48629;SDS011;34426;52.180;4.462;2023-12-04T04:38:57;18.55;;;11.85;;
48629;SDS011;34426;52.180;4.462;2023-12-04T04:41:23;17.58;;;11.93;;
48629;SDS011;34426;52.180;4.462;2023-12-04T04:43:48;19.70;;;13.00;;
48629;SDS011;34426;52.180;4.462;2023-12-04T04:46:14;19.85;;;12.45;;
48629;SDS011;34426;52.180;4.462;2023-12-04T04:48:39;19.42;;;12.20;;
48629;SDS011;34426;52.180;4.462;2023-12-04T04:51:05;18.83;;;12.68;;
48629;SDS011;34426;52.180;4.462;2023-12-04T04:53:31;20.02;;;12.85;;
48629;SDS011;34426;52.180;4.462;2023-12-04T04:55:58;20.50;;;13.18;;
48629;SDS011;34426;52.180;4.462;2023-12-04T04:58:23;18.60;;;12.60;;
48629;SDS011;34426;52.180;4.462;2023-12-04T05:00:49;19.42;;;13.07;;
48629;SDS011;34426;52.180;4.462;2023-12-04T05:03:14;19.05;;;12.63;;
48629;SDS011;34426;52.180;4.462;2023-12-04T05:05:42;19.63;;;12.15;;
48629;SDS011;34426;52.180;4.462;2023-12-04T05:08:07;18.30;;;12.40;;
48629;SDS011;34426;52.180;4.462;2023-12-04T05:10:33;20.25;;;12.27;;
48629;SDS011;34426;52.180;4.462;2023-12-04T05:13:00;17.30;;;11.93;;
48629;SDS011;34426;52.180;4.462;2023-12-04T05:15:25;17.70;;;12.48;;
48629;SDS011;34426;52.180;4.462;2023-12-04T05:17:50;16.67;;;11.63;;
48629;SDS011;34426;52.180;4.462;2023-12-04T05:20:16;16.23;;;11.50;;
48629;SDS011;34426;52.180;4.462;2023-12-04T05:22:42;16.48;;;11.15;;
48629;SDS011;34426;52.180;4.462;2023-12-04T05:25:07;18.42;;;11.10;;
48629;SDS011;34426;52.180;4.462;2023-12-04T05:27:33;16.92;;;11.35;;
48629;SDS011;34426;52.180;4.462;2023-12-04T05:30:00;16.80;;;11.30;;
48629;SDS011;34426;52.180;4.462;2023-12-04T05:32:25;19.73;;;10.85;;
48629;SDS011;34426;52.180;4.462;2023-12-04T05:34:51;17.75;;;11.25;;
48629;SDS011;34426;52.180;4.462;2023-12-04T05:37:16;17.25;;;10.93;;
48629;SDS011;34426;52.180;4.462;2023-12-04T05:39:42;14.90;;;9.98;;
48629;SDS011;34426;52.180;4.462;2023-12-04T05:42:07;15.25;;;10.02;;
48629;SDS011;34426;52.180;4.462;2023-12-04T05:44:33;16.00;;;10.77;;
48629;SDS011;34426;52.180;4.462;2023-12-04T05:47:00;17.13;;;10.10;;
48629;SDS011;34426;52.180;4.462;2023-12-04T05:49:25;16.70;;;10.13;;
48629;SDS011;34426;52.180;4.462;2023-12-04T05:51:51;14.07;;;9.75;;
48629;SDS011;34426;52.180;4.462;2023-12-04T05:54:16;17.23;;;11.55;;
48629;SDS011;34426;52.180;4.462;2023-12-04T05:56:42;17.27;;;11.77;;
48629;SDS011;34426;52.180;4.462;2023-12-04T05:59:08;17.50;;;11.48;;
48629;SDS011;34426;52.180;4.462;2023-12-04T06:01:33;15.18;;;11.30;;
48629;SDS011;34426;52.180;4.462;2023-12-04T06:04:00;16.15;;;11.50;;
48629;SDS011;34426;52.180;4.462;2023-12-04T06:06:26;18.08;;;11.38;;
48629;SDS011;34426;52.180;4.462;2023-12-04T06:08:51;19.33;;;11.82;;
48629;SDS011;34426;52.180;4.462;2023-12-04T06:11:17;16.08;;;11.07;;
48629;SDS011;34426;52.180;4.462;2023-12-04T06:13:42;16.30;;;11.38;;
48629;SDS011;34426;52.180;4.462;2023-12-04T06:16:08;17.35;;;11.05;;
48629;SDS011;34426;52.180;4.462;2023-12-04T06:18:34;19.98;;;12.05;;
48629;SDS011;34426;52.180;4.462;2023-12-04T06:21:01;16.40;;;11.45;;
48629;SDS011;34426;52.180;4.462;2023-12-04T06:23:26;16.77;;;10.80;;
48629;SDS011;34426;52.180;4.462;2023-12-04T06:25:52;18.52;;;11.90;;
48629;SDS011;34426;52.180;4.462;2023-12-04T06:28:18;14.82;;;10.10;;
48629;SDS011;34426;52.180;4.462;2023-12-04T06:30:44;18.58;;;11.05;;
48629;SDS011;34426;52.180;4.462;2023-12-04T06:33:10;17.27;;;11.45;;
48629;SDS011;34426;52.180;4.462;2023-12-04T06:35:37;15.93;;;10.98;;
48629;SDS011;34426;52.180;4.462;2023-12-04T06:38:05;16.85;;;11.48;;
48629;SDS011;34426;52.180;4.462;2023-12-04T06:40:32;17.50;;;11.73;;
48629;SDS011;34426;52.180;4.462;2023-12-04T06:42:58;16.83;;;10.90;;
48629;SDS011;34426;52.180;4.462;2023-12-04T06:45:24;16.00;;;10.18;;
48629;SDS011;34426;52.180;4.462;2023-12-04T06:47:51;17.20;;;10.55;;
48629;SDS011;34426;52.180;4.462;2023-12-04T06:50:18;15.00;;;10.23;;
48629;SDS011;34426;52.180;4.462;2023-12-04T06:52:44;13.82;;;10.13;;
48629;SDS011;34426;52.180;4.462;2023-12-04T06:55:11;15.20;;;10.77;;
48629;SDS011;34426;52.180;4.462;2023-12-04T06:57:38;20.27;;;9.75;;
48629;SDS011;34426;52.180;4.462;2023-12-04T07:00:04;14.02;;;9.82;;
48629;SDS011;34426;52.180;4.462;2023-12-04T07:02:30;15.25;;;10.00;;
48629;SDS011;34426;52.180;4.462;2023-12-04T07:04:56;16.38;;;10.75;;
48629;SDS011;34426;52.180;4.462;2023-12-04T07:07:21;14.77;;;10.15;;
48629;SDS011;34426;52.180;4.462;2023-12-04T07:09:47;15.27;;;10.10;;
48629;SDS011;34426;52.180;4.462;2023-12-04T07:12:14;13.65;;;9.30;;
48629;SDS011;34426;52.180;4.462;2023-12-04T07:14:39;16.88;;;10.13;;
48629;SDS011;34426;52.180;4.462;2023-12-04T07:17:06;16.00;;;9.95;;
48629;SDS011;34426;52.180;4.462;2023-12-04T07:19:31;13.07;;;9.82;;
48629;SDS011;34426;52.180;4.462;2023-12-04T07:21:57;14.40;;;9.52;;
48629;SDS011;34426;52.180;4.462;2023-12-04T07:24:22;14.82;;;9.65;;
48629;SDS011;34426;52.180;4.462;2023-12-04T07:26:48;14.25;;;10.32;;
48629;SDS011;34426;52.180;4.462;2023-12-04T07:29:15;14.60;;;10.07;;
48629;SDS011;34426;52.180;4.462;2023-12-04T07:31:41;14.18;;;10.02;;
48629;SDS011;34426;52.180;4.462;2023-12-04T07:34:07;12.77;;;9.98;;
48629;SDS011;34426;52.180;4.462;2023-12-04T07:36:32;14.23;;;8.90;;
48629;SDS011;34426;52.180;4.462;2023-12-04T07:38:58;13.77;;;9.63;;
48629;SDS011;34426;52.180;4.462;2023-12-04T07:41:23;14.32;;;9.52;;
48629;SDS011;34426;52.180;4.462;2023-12-04T07:43:49;18.75;;;10.07;;
48629;SDS011;34426;52.180;4.462;2023-12-04T07:46:19;13.27;;;8.95;;
48629;SDS011;34426;52.180;4.462;2023-12-04T07:48:44;13.20;;;9.38;;
48629;SDS011;34426;52.180;4.462;2023-12-04T07:51:10;15.32;;;9.50;;
48629;SDS011;34426;52.180;4.462;2023-12-04T07:53:35;13.07;;;9.00;;
48629;SDS011;34426;52.180;4.462;2023-12-04T07:56:01;15.15;;;9.60;;
48629;SDS011;34426;52.180;4.462;2023-12-04T07:58:26;12.35;;;8.70;;
48629;SDS011;34426;52.180;4.462;2023-12-04T08:00:52;12.73;;;8.80;;
48629;SDS011;34426;52.180;4.462;2023-12-04T08:03:26;12.15;;;8.73;;
48629;SDS011;34426;52.180;4.462;2023-12-04T08:05:55;15.43;;;9.85;;
48629;SDS011;34426;52.180;4.462;2023-12-04T08:08:20;11.90;;;8.52;;
48629;SDS011;34426;52.180;4.462;2023-12-04T08:10:47;13.57;;;9.18;;
48629;SDS011;34426;52.180;4.462;2023-12-04T08:13:12;14.25;;;8.95;;
48629;SDS011;34426;52.180;4.462;2023-12-04T08:15:44;14.80;;;8.70;;
48629;SDS011;34426;52.180;4.462;2023-12-04T08:18:09;16.55;;;9.35;;
48629;SDS011;34426;52.180;4.462;2023-12-04T08:20:36;12.15;;;9.18;;
48629;SDS011;34426;52.180;4.462;2023-12-04T08:23:02;11.95;;;8.90;;
48629;SDS011;34426;52.180;4.462;2023-12-04T08:25:27;15.30;;;9.32;;
48629;SDS011;34426;52.180;4.462;2023-12-04T08:27:52;12.60;;;8.95;;
48629;SDS011;34426;52.180;4.462;2023-12-04T08:30:18;12.73;;;8.85;;
48629;SDS011;34426;52.180;4.462;2023-12-04T08:32:43;11.75;;;9.45;;
48629;SDS011;34426;52.180;4.462;2023-12-04T08:35:09;19.35;;;9.07;;
48629;SDS011;34426;52.180;4.462;2023-12-04T08:37:36;14.35;;;9.10;;
48629;SDS011;34426;52.180;4.462;2023-12-04T08:40:01;12.20;;;8.73;;
48629;SDS011;34426;52.180;4.462;2023-12-04T08:42:27;13.30;;;9.23;;
48629;SDS011;34426;52.180;4.462;2023-12-04T08:44:52;12.60;;;8.20;;
48629;SDS011;34426;52.180;4.462;2023-12-04T08:47:18;13.88;;;9.38;;
48629;SDS011;34426;52.180;4.462;2023-12-04T08:49:43;13.88;;;8.25;;
48629;SDS011;34426;52.180;4.462;2023-12-04T08:52:09;11.95;;;8.77;;
48629;SDS011;34426;52.180;4.462;2023-12-04T08:54:38;16.63;;;9.35;;
48629;SDS011;34426;52.180;4.462;2023-12-04T08:57:04;12.23;;;8.85;;
48629;SDS011;34426;52.180;4.462;2023-12-04T08:59:29;17.25;;;8.45;;
48629;SDS011;34426;52.180;4.462;2023-12-04T09:01:55;12.40;;;8.95;;
48629;SDS011;34426;52.180;4.462;2023-12-04T09:04:20;12.82;;;8.40;;
48629;SDS011;34426;52.180;4.462;2023-12-04T09:06:46;11.52;;;8.07;;
48629;SDS011;34426;52.180;4.462;2023-12-04T09:09:11;16.23;;;8.60;;
48629;SDS011;34426;52.180;4.462;2023-12-04T09:11:41;10.93;;;8.23;;
48629;SDS011;34426;52.180;4.462;2023-12-04T09:14:07;11.25;;;8.57;;
48629;SDS011;34426;52.180;4.462;2023-12-04T09:16:32;11.07;;;8.38;;
48629;SDS011;34426;52.180;4.462;2023-12-04T09:18:57;10.63;;;7.63;;
48629;SDS011;34426;52.180;4.462;2023-12-04T09:21:23;14.77;;;8.73;;
48629;SDS011;34426;52.180;4.462;2023-12-04T09:23:48;14.55;;;8.48;;
48629;SDS011;34426;52.180;4.462;2023-12-04T09:26:14;13.45;;;7.85;;
48629;SDS011;34426;52.180;4.462;2023-12-04T09:28:41;10.52;;;7.75;;
48629;SDS011;34426;52.180;4.462;2023-12-04T09:31:06;14.25;;;8.23;;
48629;SDS011;34426;52.180;4.462;2023-12-04T09:33:33;15.52;;;8.35;;
48629;SDS011;34426;52.180;4.462;2023-12-04T09:35:59;10.40;;;7.72;;
48629;SDS011;34426;52.180;4.462;2023-12-04T09:38:24;11.27;;;8.25;;
48629;SDS011;34426;52.180;4.462;2023-12-04T09:40:49;11.00;;;7.82;;
48629;SDS011;34426;52.180;4.462;2023-12-04T09:43:17;12.25;;;7.60;;
48629;SDS011;34426;52.180;4.462;2023-12-04T09:45:45;13.15;;;7.60;;
48629;SDS011;34426;52.180;4.462;2023-12-04T09:48:10;14.00;;;7.88;;
48629;SDS011;34426;52.180;4.462;2023-12-04T09:50:36;11.00;;;7.60;;
48629;SDS011;34426;52.180;4.462;2023-12-04T09:53:01;10.27;;;7.72;;
48629;SDS011;34426;52.180;4.462;2023-12-04T09:55:28;10.70;;;7.13;;
48629;SDS011;34426;52.180;4.462;2023-12-04T09:57:53;10.55;;;7.70;;
48629;SDS011;34426;52.180;4.462;2023-12-04T10:00:19;10.35;;;7.60;;
48629;SDS011;34426;52.180;4.462;2023-12-04T10:02:47;9.73;;;6.93;;
48629;SDS011;34426;52.180;4.462;2023-12-04T10:05:13;10.65;;;7.35;;
48629;SDS011;34426;52.180;4.462;2023-12-04T10:07:39;14.25;;;7.95;;
48629;SDS011;34426;52.180;4.462;2023-12-04T10:10:05;9.70;;;7.15;;
48629;SDS011;34426;52.180;4.462;2023-12-04T10:12:31;11.85;;;6.97;;
48629;SDS011;34426;52.180;4.462;2023-12-04T10:15:03;11.63;;;7.45;;
48629;SDS011;34426;52.180;4.462;2023-12-04T10:17:32;11.38;;;7.55;;
48629;SDS011;34426;52.180;4.462;2023-12-04T10:20:05;8.88;;;7.38;;
48629;SDS011;34426;52.180;4.462;2023-12-04T10:22:32;11.45;;;7.47;;
48629;SDS011;34426;52.180;4.462;2023-12-04T10:24:57;11.60;;;7.30;;
48629;SDS011;34426;52.180;4.462;2023-12-04T10:27:22;9.40;;;6.38;;
48629;SDS011;34426;52.180;4.462;2023-12-04T10:29:51;8.25;;;6.78;;
48629;SDS011;34426;52.180;4.462;2023-12-04T10:32:17;10.93;;;7.55;;
48629;SDS011;34426;52.180;4.462;2023-12-04T10:34:43;9.75;;;6.55;;
48629;SDS011;34426;52.180;4.462;2023-12-04T10:37:10;10.35;;;7.07;;
48629;SDS011;34426;52.180;4.462;2023-12-04T10:39:44;9.82;;;6.63;;
48629;SDS011;34426;52.180;4.462;2023-12-04T10:42:11;10.45;;;7.32;;
48629;SDS011;34426;52.180;4.462;2023-12-04T10:44:36;9.82;;;7.20;;
48629;SDS011;34426;52.180;4.462;2023-12-04T10:47:05;9.50;;;6.53;;
48629;SDS011;34426;52.180;4.462;2023-12-04T10:49:31;13.52;;;7.72;;
48629;SDS011;34426;52.180;4.462;2023-12-04T10:51:57;10.68;;;6.25;;
48629;SDS011;34426;52.180;4.462;2023-12-04T10:54:24;9.55;;;7.20;;
48629;SDS011;34426;52.180;4.462;2023-12-04T10:56:51;11.10;;;7.05;;
48629;SDS011;34426;52.180;4.462;2023-12-04T10:59:18;9.45;;;7.00;;
48629;SDS011;34426;52.180;4.462;2023-12-04T11:01:51;8.13;;;6.30;;
48629;SDS011;34426;52.180;4.462;2023-12-04T11:04:19;9.35;;;6.80;;
48629;SDS011;34426;52.180;4.462;2023-12-04T11:06:45;11.07;;;7.10;;
48629;SDS011;34426;52.180;4.462;2023-12-04T11:09:15;7.97;;;5.93;;
48629;SDS011;34426;52.180;4.462;2023-12-04T11:11:44;10.60;;;6.45;;
48629;SDS011;34426;52.180;4.462;2023-12-04T11:14:13;8.93;;;5.93;;
48629;SDS011;34426;52.180;4.462;2023-12-04T11:16:44;9.75;;;6.82;;
48629;SDS011;34426;52.180;4.462;2023-12-04T11:19:13;9.70;;;6.57;;
48629;SDS011;34426;52.180;4.462;2023-12-04T11:21:45;8.57;;;5.97;;
48629;SDS011;34426;52.180;4.462;2023-12-04T11:24:11;10.27;;;7.32;;
48629;SDS011;34426;52.180;4.462;2023-12-04T11:26:37;8.45;;;6.20;;
48629;SDS011;34426;52.180;4.462;2023-12-04T11:29:04;8.02;;;6.07;;
48629;SDS011;34426;52.180;4.462;2023-12-04T11:31:31;9.13;;;6.55;;
48629;SDS011;34426;52.180;4.462;2023-12-04T11:34:01;8.70;;;6.60;;
48629;SDS011;34426;52.180;4.462;2023-12-04T11:36:27;10.52;;;7.03;;
48629;SDS011;34426;52.180;4.462;2023-12-04T11:38:53;9.82;;;6.70;;
48629;SDS011;34426;52.180;4.462;2023-12-04T11:41:19;9.20;;;6.30;;
48629;SDS011;34426;52.180;4.462;2023-12-04T11:43:45;10.48;;;6.35;;
48629;SDS011;34426;52.180;4.462;2023-12-04T11:46:13;11.95;;;6.35;;
48629;SDS011;34426;52.180;4.462;2023-12-04T11:48:43;10.00;;;6.47;;
48629;SDS011;34426;52.180;4.462;2023-12-04T11:51:09;7.70;;;5.80;;
48629;SDS011;34426;52.180;4.462;2023-12-04T11:53:37;8.23;;;6.60;;
48629;SDS011;34426;52.180;4.462;2023-12-04T11:56:08;12.60;;;6.65;;
48629;SDS011;34426;52.180;4.462;2023-12-04T11:58:37;8.85;;;6.65;;
48629;SDS011;34426;52.180;4.462;2023-12-04T12:01:07;10.90;;;6.60;;
48629;SDS011;34426;52.180;4.462;2023-12-04T12:03:33;8.93;;;6.45;;
48629;SDS011;34426;52.180;4.462;2023-12-04T12:05:59;9.77;;;6.43;;
48629;SDS011;34426;52.180;4.462;2023-12-04T12:08:25;8.95;;;6.55;;
48629;SDS011;34426;52.180;4.462;2023-12-04T12:10:53;9.90;;;6.22;;
48629;SDS011;34426;52.180;4.462;2023-12-04T12:13:19;11.45;;;7.35;;
48629;SDS011;34426;52.180;4.462;2023-12-04T12:15:46;10.00;;;6.38;;
48629;SDS011;34426;52.180;4.462;2023-12-04T12:18:12;9.73;;;6.72;;
48629;SDS011;34426;52.180;4.462;2023-12-04T12:20:38;11.55;;;6.60;;
48629;SDS011;34426;52.180;4.462;2023-12-04T12:23:04;8.63;;;6.20;;
48629;SDS011;34426;52.180;4.462;2023-12-04T12:25:29;9.23;;;7.55;;
48629;SDS011;34426;52.180;4.462;2023-12-04T12:27:55;12.25;;;7.20;;
48629;SDS011;34426;52.180;4.462;2023-12-04T12:30:21;13.45;;;6.60;;
48629;SDS011;34426;52.180;4.462;2023-12-04T12:32:46;9.73;;;6.72;;
48629;SDS011;34426;52.180;4.462;2023-12-04T12:35:12;8.88;;;7.05;;
48629;SDS011;34426;52.180;4.462;2023-12-04T12:37:39;8.68;;;6.18;;
48629;SDS011;34426;52.180;4.462;2023-12-04T12:40:05;10.40;;;6.97;;
48629;SDS011;34426;52.180;4.462;2023-12-04T12:42:32;12.48;;;7.57;;
48629;SDS011;34426;52.180;4.462;2023-12-04T12:44:59;9.23;;;6.78;;
48629;SDS011;34426;52.180;4.462;2023-12-04T12:47:26;10.73;;;7.40;;
48629;SDS011;34426;52.180;4.462;2023-12-04T12:49:51;9.18;;;7.03;;
48629;SDS011;34426;52.180;4.462;2023-12-04T12:52:17;12.23;;;7.60;;
48629;SDS011;34426;52.180;4.462;2023-12-04T12:54:45;9.20;;;7.30;;
48629;SDS011;34426;52.180;4.462;2023-12-04T12:57:11;9.95;;;7.32;;
48629;SDS011;34426;52.180;4.462;2023-12-04T12:59:37;10.40;;;7.38;;
48629;SDS011;34426;52.180;4.462;2023-12-04T13:02:03;10.25;;;6.93;;
48629;SDS011;34426;52.180;4.462;2023-12-04T13:04:35;9.00;;;6.72;;
48629;SDS011;34426;52.180;4.462;2023-12-04T13:07:01;11.75;;;7.85;;
48629;SDS011;34426;52.180;4.462;2023-12-04T13:09:26;11.25;;;7.38;;
48629;SDS011;34426;52.180;4.462;2023-12-04T13:11:53;10.10;;;7.65;;
48629;SDS011;34426;52.180;4.462;2023-12-04T13:14:18;11.95;;;8.20;;
48629;SDS011;34426;52.180;4.462;2023-12-04T13:16:44;9.77;;;7.57;;
48629;SDS011;34426;52.180;4.462;2023-12-04T13:19:09;15.82;;;8.20;;
48629;SDS011;34426;52.180;4.462;2023-12-04T13:21:35;11.13;;;7.82;;
48629;SDS011;34426;52.180;4.462;2023-12-04T13:24:00;12.13;;;8.27;;
48629;SDS011;34426;52.180;4.462;2023-12-04T13:26:26;12.52;;;8.80;;
48629;SDS011;34426;52.180;4.462;2023-12-04T13:28:52;11.23;;;7.95;;
48629;SDS011;34426;52.180;4.462;2023-12-04T13:31:18;13.65;;;8.68;;
48629;SDS011;34426;52.180;4.462;2023-12-04T13:33:43;13.40;;;9.10;;
48629;SDS011;34426;52.180;4.462;2023-12-04T13:36:09;12.60;;;8.60;;
48629;SDS011;34426;52.180;4.462;2023-12-04T13:38:35;19.52;;;9.18;;
48629;SDS011;34426;52.180;4.462;2023-12-04T13:41:01;12.73;;;9.32;;
48629;SDS011;34426;52.180;4.462;2023-12-04T13:43:26;12.55;;;9.07;;
48629;SDS011;34426;52.180;4.462;2023-12-04T13:45:53;11.15;;;8.75;;
48629;SDS011;34426;52.180;4.462;2023-12-04T13:48:19;14.18;;;8.77;;
48629;SDS011;34426;52.180;4.462;2023-12-04T13:50:44;20.50;;;9.88;;
48629;SDS011;34426;52.180;4.462;2023-12-04T13:53:09;13.93;;;9.55;;
48629;SDS011;34426;52.180;4.462;2023-12-04T13:55:35;12.90;;;10.00;;
48629;SDS011;34426;52.180;4.462;2023-12-04T13:58:00;14.15;;;9.90;;
48629;SDS011;34426;52.180;4.462;2023-12-04T14:00:26;17.13;;;10.05;;
48629;SDS011;34426;52.180;4.462;2023-12-04T14:02:53;16.52;;;10.77;;
48629;SDS011;34426;52.180;4.462;2023-12-04T14:05:18;13.05;;;10.13;;
48629;SDS011;34426;52.180;4.462;2023-12-04T14:07:44;12.85;;;10.20;;
48629;SDS011;34426;52.180;4.462;2023-12-04T14:10:09;14.55;;;9.35;;
48629;SDS011;34426;52.180;4.462;2023-12-04T14:12:35;14.88;;;10.02;;
48629;SDS011;34426;52.180;4.462;2023-12-04T14:15:00;16.23;;;10.43;;
48629;SDS011;34426;52.180;4.462;2023-12-04T14:17:25;15.48;;;10.40;;
48629;SDS011;34426;52.180;4.462;2023-12-04T14:19:52;16.92;;;10.70;;
48629;SDS011;34426;52.180;4.462;2023-12-04T14:22:18;14.90;;;10.52;;